Dinnington, United Kingdom
Current Conditions -  °F | °C
As of 1:20 AM on Sunday 21 Dec 2014 (Local Time) from EGCN Reporting Station
Broken Clouds Broken Clouds  
Wind Chill: 41°   Ceiling: 2500
Heat Index: 45°   Visibility: 6mi
Dew Point: 39°   Wind: 6mph
Humidity: 81%   Direction: 160°SSE
Pressure: 30.33"   Gusts: NA
Location:  53.37°N, 1.2°W
Report Text: EGCN 210120Z 16005KT 9999 BKN025 07/04 Q1027
Loading
Personal Weather Stations






























Interactive Weather Map New forecast layout! Learn more

10-Day Weather Forecast

Advertisements
Track Severe Weather on mobile